createdAt,value
2022-12-08T00:15:55.611Z,10.80
2022-12-08T00:21:06.525Z,10.30
2022-12-08T00:26:19.243Z,10.40
2022-12-08T00:31:47.368Z,10.30
2022-12-08T00:37:19.855Z,9.30
2022-12-08T00:42:31.074Z,9.20
2022-12-08T00:47:40.150Z,9.40
2022-12-08T00:52:48.316Z,9.60
2022-12-08T00:57:56.150Z,9.70
2022-12-08T01:03:03.867Z,9.00
2022-12-08T01:08:18.946Z,8.40
2022-12-08T01:13:32.760Z,8.00
2022-12-08T01:18:45.525Z,8.30
2022-12-08T01:23:56.642Z,8.90
2022-12-08T01:29:03.952Z,8.90
2022-12-08T01:34:14.032Z,8.70
2022-12-08T01:39:22.389Z,9.10
2022-12-08T01:45:04.544Z,7.60
2022-12-08T01:50:17.537Z,7.90
2022-12-08T01:55:37.833Z,8.60
2022-12-08T02:00:47.880Z,9.40
2022-12-08T02:05:55.936Z,8.60
2022-12-08T02:11:06.980Z,8.60
2022-12-08T02:16:27.391Z,8.00
2022-12-08T02:21:42.790Z,6.80
2022-12-08T02:27:15.462Z,7.50
2022-12-08T02:32:44.562Z,7.40
2022-12-08T02:37:58.419Z,7.20
2022-12-08T02:43:11.520Z,6.80
2022-12-08T02:48:21.464Z,6.90
2022-12-08T02:53:31.817Z,8.10
2022-12-08T02:58:58.259Z,9.30
2022-12-08T03:04:16.836Z,9.80
2022-12-08T03:09:35.782Z,9.30
2022-12-08T03:14:47.021Z,8.90
2022-12-08T03:19:55.943Z,11.00
2022-12-08T03:25:03.833Z,11.30
2022-12-08T03:30:14.301Z,10.90
2022-12-08T03:35:30.423Z,10.80
2022-12-08T03:40:41.589Z,12.50
2022-12-08T03:45:49.327Z,13.70
2022-12-08T03:50:56.824Z,14.10
2022-12-08T03:56:04.616Z,14.90
2022-12-08T04:01:11.723Z,14.20
2022-12-08T04:06:19.989Z,13.30
2022-12-08T04:11:27.246Z,14.90
2022-12-08T04:16:34.959Z,13.80
2022-12-08T04:21:42.134Z,13.90
2022-12-08T04:26:51.178Z,17.60
2022-12-08T04:32:03.603Z,15.90
2022-12-08T04:37:11.628Z,15.30
2022-12-08T04:42:19.958Z,15.10
2022-12-08T04:47:35.843Z,13.10
2022-12-08T04:52:43.314Z,14.80
2022-12-08T04:57:51.323Z,16.20
2022-12-08T05:02:59.026Z,18.30
2022-12-08T05:08:24.556Z,18.70
2022-12-08T05:13:46.245Z,19.50
2022-12-08T05:18:54.304Z,19.60
2022-12-08T05:24:02.963Z,19.00
2022-12-08T05:29:10.226Z,18.60
2022-12-08T05:34:20.481Z,18.30
2022-12-08T05:39:31.111Z,19.30
2022-12-08T05:44:42.022Z,19.80
2022-12-08T05:49:49.832Z,20.80
2022-12-08T05:55:02.442Z,22.30
2022-12-08T06:00:26.696Z,20.20
2022-12-08T06:05:35.901Z,22.50
2022-12-08T06:11:01.388Z,23.50
2022-12-08T06:21:23.159Z,21.40
2022-12-08T06:26:30.749Z,26.50
2022-12-08T06:31:38.386Z,27.00
2022-12-08T06:36:45.610Z,26.00
2022-12-08T06:42:10.234Z,26.80
2022-12-08T06:47:20.972Z,29.80
2022-12-08T06:52:30.915Z,30.20
2022-12-08T06:57:38.037Z,28.90
2022-12-08T07:02:46.136Z,27.30
2022-12-08T07:07:53.184Z,28.20
2022-12-08T07:13:00.281Z,25.90
2022-12-08T07:18:07.350Z,26.30
2022-12-08T07:23:14.518Z,28.10
2022-12-08T07:28:21.597Z,25.60
2022-12-08T07:33:33.441Z,27.20
2022-12-08T07:38:40.756Z,26.10
2022-12-08T07:43:47.928Z,29.60
2022-12-08T07:48:55.903Z,27.00
2022-12-08T07:54:03.068Z,26.30
2022-12-08T07:59:10.105Z,23.80
2022-12-08T08:04:17.283Z,24.10
2022-12-08T08:09:24.374Z,24.10
2022-12-08T08:14:32.023Z,24.90
2022-12-08T08:19:39.051Z,21.50
2022-12-08T08:24:46.066Z,24.60
2022-12-08T08:29:53.041Z,21.70
2022-12-08T08:35:00.028Z,19.60
2022-12-08T08:40:08.674Z,20.30
2022-12-08T08:45:15.527Z,17.60
2022-12-08T08:50:22.814Z,16.80
2022-12-08T08:55:29.959Z,16.30
2022-12-08T09:00:36.868Z,18.00
2022-12-08T09:05:44.041Z,15.90
2022-12-08T09:10:51.214Z,14.40
2022-12-08T09:15:58.789Z,13.90
2022-12-08T09:21:09.090Z,12.90
2022-12-08T09:26:16.145Z,14.80
2022-12-08T09:31:24.698Z,13.00
2022-12-08T09:36:31.964Z,14.10
2022-12-08T09:41:48.378Z,11.70
2022-12-08T09:46:59.912Z,13.40
2022-12-08T09:52:22.697Z,11.50
2022-12-08T09:57:32.104Z,12.00
2022-12-08T10:02:39.055Z,11.30
2022-12-08T10:07:50.231Z,12.10
2022-12-08T10:13:08.377Z,11.20
2022-12-08T10:18:19.311Z,11.10
2022-12-08T10:23:33.028Z,9.20
2022-12-08T10:28:44.702Z,9.60
2022-12-08T10:33:59.308Z,9.70
2022-12-08T10:39:21.864Z,10.20
2022-12-08T10:44:29.444Z,11.40
2022-12-08T10:49:39.023Z,8.80
2022-12-08T10:54:46.150Z,9.80
2022-12-08T10:59:55.683Z,9.20
2022-12-08T11:05:02.834Z,11.50
2022-12-08T11:10:20.940Z,10.70
2022-12-08T11:15:36.663Z,11.20
2022-12-08T11:20:44.248Z,10.90
2022-12-08T11:25:52.948Z,12.80
2022-12-08T11:31:05.004Z,13.30
2022-12-08T11:36:16.727Z,10.90
2022-12-08T11:41:27.488Z,16.10
2022-12-08T11:46:41.675Z,12.60
2022-12-08T11:51:54.138Z,12.90
2022-12-08T11:57:03.578Z,10.90
2022-12-08T12:02:16.104Z,12.50
2022-12-08T12:07:42.126Z,10.90
2022-12-08T12:13:01.643Z,11.00
2022-12-08T12:18:16.770Z,12.90
2022-12-08T12:23:31.541Z,11.20
2022-12-08T12:28:45.226Z,10.60
2022-12-08T12:33:55.247Z,10.80
2022-12-08T12:39:04.291Z,10.80
2022-12-08T12:44:26.831Z,12.80
2022-12-08T12:49:54.126Z,15.40
2022-12-08T12:55:26.040Z,14.30
2022-12-08T13:00:33.117Z,12.90
2022-12-08T13:05:51.866Z,13.90
2022-12-08T13:11:04.660Z,14.60
2022-12-08T13:16:22.876Z,18.10
2022-12-08T13:21:37.241Z,20.40
2022-12-08T13:26:49.289Z,16.80
2022-12-08T13:37:19.995Z,14.20
2022-12-08T13:42:34.870Z,13.60
2022-12-08T13:48:14.161Z,15.50
2022-12-08T13:54:42.510Z,14.30
2022-12-08T13:58:46.893Z,15.40
2022-12-08T14:09:27.217Z,15.90
2022-12-08T14:15:01.859Z,17.70
2022-12-08T14:20:19.255Z,16.60
2022-12-08T14:25:27.356Z,16.20
2022-12-08T14:30:36.314Z,17.60
2022-12-08T14:35:55.323Z,16.70
2022-12-08T14:41:08.863Z,17.90
2022-12-08T14:46:24.453Z,21.80
2022-12-08T14:51:34.443Z,21.20
2022-12-08T14:56:44.641Z,28.70
2022-12-08T15:01:54.670Z,36.20
2022-12-08T15:07:05.952Z,49.90
2022-12-08T15:12:26.698Z,59.10
2022-12-08T15:17:42.082Z,61.00
2022-12-08T15:22:49.185Z,113.00
2022-12-08T15:27:56.644Z,83.60
2022-12-08T15:33:03.847Z,67.30
2022-12-08T15:38:20.129Z,41.40
2022-12-08T15:43:27.539Z,43.60
2022-12-08T15:48:34.549Z,45.60
2022-12-08T15:53:42.524Z,55.40
2022-12-08T15:58:54.784Z,45.30
2022-12-08T16:09:34.267Z,39.90
2022-12-08T16:20:15.106Z,77.50
2022-12-08T16:25:22.965Z,65.10
2022-12-08T16:30:30.383Z,42.60
2022-12-08T16:35:37.357Z,45.70
2022-12-08T16:41:04.616Z,31.30
2022-12-08T16:46:23.254Z,35.70
2022-12-08T16:51:30.206Z,35.40
2022-12-08T16:56:37.167Z,39.50
2022-12-08T17:01:44.095Z,60.30
2022-12-08T17:06:53.525Z,34.00
2022-12-08T17:12:04.055Z,33.10
2022-12-08T17:17:11.496Z,31.50
2022-12-08T17:22:21.456Z,31.50
2022-12-08T17:27:31.987Z,34.50
2022-12-08T17:32:45.759Z,39.30
2022-12-08T17:37:55.935Z,48.10
2022-12-08T17:43:06.224Z,57.40
2022-12-08T17:48:18.464Z,60.90
2022-12-08T17:53:37.511Z,49.60
2022-12-08T17:58:54.901Z,47.50
2022-12-08T18:04:12.575Z,38.60
2022-12-08T18:09:34.550Z,38.50
2022-12-08T18:14:56.832Z,37.00
2022-12-08T18:20:15.713Z,41.30
2022-12-08T18:25:33.299Z,40.10
2022-12-08T18:30:55.618Z,49.20
2022-12-08T18:36:11.683Z,48.50
2022-12-08T18:41:43.031Z,37.60
2022-12-08T18:46:58.169Z,35.90
2022-12-08T18:59:15.746Z,45.90
2022-12-08T19:04:38.432Z,50.60
2022-12-08T19:09:56.522Z,59.90
2022-12-08T19:15:12.493Z,58.20
2022-12-08T19:20:46.337Z,53.50
2022-12-08T19:27:02.915Z,55.50
2022-12-08T19:32:25.193Z,54.70
2022-12-08T19:38:04.370Z,39.90
2022-12-08T19:43:58.104Z,44.90
2022-12-08T19:49:19.158Z,39.70
2022-12-08T19:54:39.977Z,37.60
2022-12-08T19:59:56.563Z,41.10
2022-12-08T20:05:09.951Z,42.20
2022-12-08T20:10:30.109Z,39.80
2022-12-08T20:15:44.683Z,40.10
2022-12-08T20:20:59.199Z,41.30
2022-12-08T20:26:18.075Z,40.90
2022-12-08T20:31:35.402Z,36.10
2022-12-08T20:36:46.691Z,37.80
2022-12-08T20:41:56.731Z,41.40
2022-12-08T20:47:07.878Z,33.10
2022-12-08T20:52:16.632Z,37.40
2022-12-08T20:57:31.526Z,36.90
2022-12-08T21:02:49.729Z,31.10
2022-12-08T21:08:13.374Z,31.30
2022-12-08T21:13:31.465Z,29.80
2022-12-08T21:18:44.042Z,29.10
2022-12-08T21:23:57.063Z,28.90
2022-12-08T21:29:07.232Z,30.80
2022-12-08T21:34:15.890Z,45.80
2022-12-08T21:39:30.477Z,37.80
2022-12-08T21:44:42.042Z,34.10
2022-12-08T21:49:50.087Z,31.40
2022-12-08T21:55:02.028Z,36.80
2022-12-08T22:00:15.106Z,39.50
2022-12-08T22:05:26.677Z,49.70
2022-12-08T22:10:36.343Z,38.70
2022-12-08T22:15:44.285Z,39.50
2022-12-08T22:21:01.529Z,35.50
2022-12-08T22:26:13.271Z,29.90
2022-12-08T22:31:25.331Z,27.90
2022-12-08T22:36:34.632Z,27.70
2022-12-08T22:41:46.554Z,32.20
2022-12-08T22:47:01.681Z,29.40
2022-12-08T22:52:17.711Z,30.30
2022-12-08T22:57:30.017Z,40.00
2022-12-08T23:02:43.449Z,43.00
2022-12-08T23:07:53.457Z,32.70
2022-12-08T23:13:04.186Z,31.40
2022-12-08T23:18:17.507Z,35.00
2022-12-08T23:23:25.885Z,37.20
2022-12-08T23:29:42.344Z,32.20
2022-12-08T23:35:12.958Z,32.80
2022-12-08T23:40:24.571Z,35.90
2022-12-08T23:45:37.968Z,29.30
2022-12-08T23:50:47.598Z,31.40
2022-12-08T23:56:03.736Z,30.90
